Palflot-5 — UBHC — position and weather

sailwx.info

Track history (hours):
 
Tides and Currents Weather Stations Pressure Air Temp Water Temp Dewpoint Dewpoint Depression Visibility Wind Speed Wind Dir Waves Ship Positions

Palflot-5

Last reported at 2014-Dec-14 07:08 UTC. Time now 2014-Dec-22 07:47 UTC.
Position N 45°04' E 036°47'.
Warning: this ship's position is 8 days out of date.

Length 122 m; draft 2.4 m.

Type: Tanker. MMSI: 273443040.

Date/timePositionNaut miles runAvg speedWind from/ knotsBaromVisibWave heightAir tempDewpointWater temp
2014-Dec-14 07:08N 45°04' E 036°47'0 0.0
2014-Dec-14 05:26N 45°04' E 036°47'  
2014-Dec-10 17:16N 44°32' E 037°30'5 7.5
2014-Dec-10 16:34N 44°30' E 037°37'10 7.6
2014-Dec-10 15:14N 44°25' E 037°49'6 7.9
2014-Dec-10 14:32N 44°22' E 037°56'8 7.9
2014-Dec-10 13:33N 44°19' E 038°06'8 7.8
2014-Dec-10 12:33N 44°15' E 038°15'8 7.9
2014-Dec-10 11:29N 44°12' E 038°26'7 7.8
2014-Dec-10 10:33N 44°08' E 038°35'7 7.5
2014-Dec-10 09:34N 44°05' E 038°44'7 7.1
2014-Dec-10 08:34N 44°01' E 038°53'7 7.1
2014-Dec-10 07:33N 43°56' E 038°60'  
2014-Dec-05 23:13N 44°26' E 037°48'4 5.4
2014-Dec-05 22:32N 44°28' E 037°43'  
Track history (hours):
 
Tides and Currents Weather Stations Pressure Air Temp Water Temp Dewpoint Dewpoint Depression Visibility Wind Speed Wind Dir Waves Ship Positions

Palflot-5

Last reported at 2014-Dec-14 07:08 UTC. Time now 2014-Dec-22 07:47 UTC.
Position N 45°04' E 036°47'.
Warning: this ship's position is 8 days out of date.

Length 122 m; draft 2.4 m.

Type: Tanker. MMSI: 273443040.

Date/timePositionNaut miles runAvg speedWind from/ knotsBaromVisibWave heightAir tempDewpointWater temp
2014-Dec-14 07:08N 45°04' E 036°47'0 0.0
2014-Dec-14 05:26N 45°04' E 036°47'  
2014-Dec-10 17:16N 44°32' E 037°30'5 7.5
2014-Dec-10 16:34N 44°30' E 037°37'10 7.6
2014-Dec-10 15:14N 44°25' E 037°49'6 7.9
2014-Dec-10 14:32N 44°22' E 037°56'8 7.9
2014-Dec-10 13:33N 44°19' E 038°06'8 7.8
2014-Dec-10 12:33N 44°15' E 038°15'8 7.9
2014-Dec-10 11:29N 44°12' E 038°26'7 7.8
2014-Dec-10 10:33N 44°08' E 038°35'7 7.5
2014-Dec-10 09:34N 44°05' E 038°44'7 7.1
2014-Dec-10 08:34N 44°01' E 038°53'7 7.1
2014-Dec-10 07:33N 43°56' E 038°60'  
2014-Dec-05 23:13N 44°26' E 037°48'4 5.4
2014-Dec-05 22:32N 44°28' E 037°43'  

Dump ship's entire track history